Time;durP1;ratioP1;P1;durP2;ratioP2;P2;SDS_P1;SDS_P2;PMS_P1;PMS_P2;Temp;Humidity;BMP_temperature;BMP_pressure;BME280_temperature;BME280_humidity;BME280_pressure;Samples;Min_cycle;Max_cycle;Signal;HPM_P1;HPM_P2
2022/04/21 00:02:12;;;;;;;21.27;10.80;;;;;;;9.91;43.52;100149.28;5356911;32;34738;-69
2022/04/21 00:05:14;;;;;;;18.00;10.53;;;;;;;9.24;45.05;100146.66;5362818;32;34073;-74
2022/04/21 00:08:20;;;;;;;22.03;11.27;;;;;;;10.30;42.47;100153.88;5363155;32;33934;-73
2022/04/21 00:11:22;;;;;;;18.20;10.40;;;;;;;10.05;42.97;100140.88;5388965;32;44634;-71
2022/04/21 00:14:24;;;;;;;20.10;10.43;;;;;;;10.69;41.54;100142.59;5375737;32;34541;-69
2022/04/21 00:17:26;;;;;;;18.73;10.20;;;;;;;9.88;43.24;100128.44;5393420;32;35423;-74
2022/04/21 00:20:28;;;;;;;17.30;10.63;;;;;;;9.89;43.40;100135.37;5361818;32;35220;-75
2022/04/21 00:23:31;;;;;;;21.63;10.73;;;;;;;9.30;45.11;100135.09;5373477;32;35159;-70
2022/04/21 00:26:34;;;;;;;19.23;10.63;;;;;;;9.59;44.42;100134.81;5401712;32;34859;-70
2022/04/21 00:29:36;;;;;;;20.87;11.33;;;;;;;9.59;44.61;100129.56;5351237;32;34856;-70
2022/04/21 00:32:39;;;;;;;17.90;11.17;;;;;;;9.53;45.53;100137.69;5364383;32;35479;-70
2022/04/21 00:35:42;;;;;;;19.98;11.55;;;;;;;8.78;46.76;100142.25;5365499;32;34839;-74
2022/04/21 00:38:44;;;;;;;17.73;10.70;;;;;;;8.98;46.69;100137.16;5366928;32;34551;-70
2022/04/21 00:41:46;;;;;;;21.90;12.27;;;;;;;8.62;47.87;100137.53;5373026;32;35287;-69
2022/04/21 00:44:51;;;;;;;18.40;11.23;;;;;;;9.08;47.24;100135.91;5389951;32;35022;-74
2022/04/21 00:47:56;;;;;;;18.40;11.90;;;;;;;8.96;47.83;100141.59;5393070;32;45067;-71
2022/04/21 00:50:58;;;;;;;21.93;12.57;;;;;;;8.91;48.04;100140.91;5382892;32;35097;-74
2022/04/21 00:54:00;;;;;;;22.37;12.80;;;;;;;8.75;48.72;100143.19;5388073;32;36322;-71
2022/04/21 00:57:04;;;;;;;21.80;13.07;;;;;;;8.22;50.69;100145.00;5337688;32;34479;-74
2022/04/21 01:00:07;;;;;;;20.02;11.45;;;;;;;9.89;46.12;100137.16;5388135;32;35164;-72
2022/04/21 01:03:12;;;;;;;19.83;12.25;;;;;;;8.28;49.77;100150.91;5403775;32;34922;-74
2022/04/21 01:06:14;;;;;;;21.90;12.40;;;;;;;8.92;48.59;100140.84;5382207;32;35114;-73
2022/04/21 01:09:16;;;;;;;18.50;12.00;;;;;;;8.23;50.67;100137.09;5388371;32;35165;-71
2022/04/21 01:12:18;;;;;;;22.30;12.93;;;;;;;8.59;49.60;100140.28;5376022;32;34672;-73
2022/04/21 01:15:21;;;;;;;20.70;11.97;;;;;;;8.64;49.95;100142.75;5392769;32;35624;-70
2022/04/21 01:18:27;;;;;;;20.17;13.13;;;;;;;9.06;48.89;100132.47;5355833;32;44318;-73
2022/04/21 01:21:29;;;;;;;22.43;13.47;;;;;;;8.74;49.71;100132.78;5375975;32;33170;-70
2022/04/21 01:24:31;;;;;;;22.00;13.03;;;;;;;7.99;52.04;100149.25;5379776;32;35059;-70
2022/04/21 01:27:35;;;;;;;19.37;12.70;;;;;;;8.41;51.17;100135.66;5373670;32;35233;-75
2022/04/21 01:30:38;;;;;;;23.27;13.43;;;;;;;8.23;51.82;100136.25;5399275;32;34064;-73
2022/04/21 01:33:41;;;;;;;20.65;12.80;;;;;;;7.95;52.91;100129.31;5375119;32;35305;-69
2022/04/21 01:43:25;;;;;;;23.50;13.90;;;;;;;7.95;53.49;100134.53;5375790;32;44618;-70
2022/04/21 01:46:27;;;;;;;24.77;13.87;;;;;;;7.89;53.86;100132.13;5380743;32;34857;-73
2022/04/21 01:49:30;;;;;;;20.80;13.83;;;;;;;8.00;53.75;100130.03;5372186;32;36123;-75
2022/04/21 01:52:33;;;;;;;27.93;14.80;;;;;;;8.88;51.31;100133.13;5369645;32;34755;-70
2022/04/21 01:55:35;;;;;;;25.88;14.80;;;;;;;8.58;51.53;100130.72;5363455;32;34238;-69
2022/04/21 01:58:38;;;;;;;28.70;15.50;;;;;;;7.82;54.01;100130.62;5365710;32;34163;-73
2022/04/21 02:01:40;;;;;;;24.73;14.93;;;;;;;8.27;53.03;100135.25;5399063;32;36570;-73
2022/04/21 02:04:42;;;;;;;24.67;15.20;;;;;;;7.88;53.75;100131.28;5380522;32;35172;-73
2022/04/21 02:07:46;;;;;;;22.37;14.23;;;;;;;8.48;52.22;100124.06;5399241;32;34803;-70
2022/04/21 02:10:48;;;;;;;28.45;16.08;;;;;;;7.66;54.25;100122.37;5375189;32;34143;-74
2022/04/21 02:13:51;;;;;;;26.80;15.07;;;;;;;8.00;53.86;100116.94;5372545;32;34385;-69
2022/04/21 02:16:53;;;;;;;28.58;15.38;;;;;;;7.48;55.64;100117.75;5371561;32;44412;-74
2022/04/21 02:19:55;;;;;;;29.37;15.60;;;;;;;7.88;54.98;100112.09;5362378;32;34045;-70
2022/04/21 02:22:58;;;;;;;25.57;15.60;;;;;;;7.63;55.62;100111.16;5366764;32;35225;-74
2022/04/21 02:26:00;;;;;;;32.37;14.77;;;;;;;7.02;57.40;100106.91;5364490;32;33997;-70
2022/04/21 02:29:02;;;;;;;25.53;15.43;;;;;;;8.22;54.20;100106.59;5393746;32;34859;-74
2022/04/21 02:32:04;;;;;;;26.43;16.40;;;;;;;8.58;52.66;100104.50;5361065;32;34939;-69
2022/04/21 02:35:08;;;;;;;25.37;15.40;;;;;;;8.48;52.96;100112.75;5368790;32;34480;-71
2022/04/21 02:38:10;;;;;;;30.30;15.98;;;;;;;7.63;55.22;100121.63;5355379;32;34734;-74
2022/04/21 02:41:12;;;;;;;32.63;15.83;;;;;;;8.05;54.32;100120.28;5351640;32;36977;-69
2022/04/21 02:44:14;;;;;;;31.63;16.10;;;;;;;7.91;54.86;100119.00;5366359;32;35412;-74
2022/04/21 02:47:16;;;;;;;27.30;16.53;;;;;;;7.55;55.34;100121.87;5351020;32;35329;-70
2022/04/21 02:50:19;;;;;;;30.33;16.00;;;;;;;7.66;55.88;100113.66;5372194;32;35198;-70
2022/04/21 02:57:19;;;;;;;37.10;17.47;;;;;;;7.75;55.34;100110.78;5357217;32;44828;-73
2022/04/21 03:00:06;;;;;;;29.30;16.07;;;;;;;7.48;56.04;100108.13;5398796;32;35468;-74
2022/04/21 03:03:08;;;;;;;;;;;;;;;7.76;55.42;100110.72;5376420;32;34261;-70
2022/04/21 03:06:13;;;;;;;26.93;15.73;;;;;;;8.39;53.62;100114.78;5392740;32;34847;-74
2022/04/21 03:09:15;;;;;;;28.47;16.93;;;;;;;7.06;56.59;100118.94;5381628;32;35024;-70
2022/04/21 03:12:17;;;;;;;27.50;15.80;;;;;;;6.73;57.32;100106.84;5390116;32;34880;-70
2022/04/21 03:15:19;;;;;;;30.83;17.00;;;;;;;6.76;58.21;100112.88;5385684;32;34776;-74
2022/04/21 03:18:21;;;;;;;31.00;16.63;;;;;;;7.22;57.41;100110.69;5377849;32;43622;-69
2022/04/21 03:24:48;;;;;;;27.23;16.27;;;;;;;7.01;58.10;100102.53;5367173;32;35245;-69
2022/04/21 03:27:51;;;;;;;29.70;16.63;;;;;;;7.23;57.22;100109.78;5386973;32;35000;-73
2022/04/21 03:30:53;;;;;;;27.93;16.07;;;;;;;6.72;58.56;100112.97;5366570;32;44984;-70
2022/04/21 03:33:55;;;;;;;28.57;16.53;;;;;;;7.00;57.58;100118.28;5379135;32;34656;-70
2022/04/21 03:36:57;;;;;;;32.57;17.43;;;;;;;6.75;57.91;100115.50;5384531;32;34411;-70
2022/04/21 03:39:59;;;;;;;32.50;16.93;;;;;;;6.84;57.55;100111.78;5390079;32;34053;-70
2022/04/21 03:43:03;;;;;;;29.33;16.83;;;;;;;6.75;58.31;100120.72;5401129;32;35217;-70
2022/04/21 03:46:05;;;;;;;27.98;16.98;;;;;;;6.83;57.52;100115.28;5370322;32;33885;-70
2022/04/21 03:49:07;;;;;;;33.10;17.27;;;;;;;7.01;56.83;100113.00;5398930;32;34245;-70
2022/04/21 03:52:10;;;;;;;27.57;16.50;;;;;;;7.30;55.83;100114.78;5386092;32;35279;-74
2022/04/21 03:55:12;;;;;;;30.23;15.83;;;;;;;7.54;55.22;100114.94;5379712;32;34078;-75
2022/04/21 03:58:14;;;;;;;29.70;16.53;;;;;;;7.69;54.68;100111.84;5373872;32;36824;-70
2022/04/21 04:01:16;;;;;;;27.17;16.37;;;;;;;7.68;54.40;100123.19;5387196;32;34834;-69
2022/04/21 04:04:19;;;;;;;34.37;17.43;;;;;;;7.01;56.10;100120.84;5360696;32;34622;-69
2022/04/21 04:10:52;;;;;;;46.77;18.53;;;;;;;7.15;56.15;100119.56;5396281;32;34340;-70
2022/04/21 04:13:54;;;;;;;35.10;19.77;;;;;;;7.41;55.38;100126.69;5383005;32;44756;-70
2022/04/21 04:16:56;;;;;;;28.13;17.53;;;;;;;6.85;57.44;100135.25;5382146;32;35505;-70
2022/04/21 04:19:59;;;;;;;31.00;18.17;;;;;;;7.35;56.09;100132.94;5401381;32;35648;-70
2022/04/21 04:23:01;;;;;;;38.15;19.52;;;;;;;7.35;55.95;100129.47;5359920;32;34428;-69
2022/04/21 04:26:04;;;;;;;36.90;18.03;;;;;;;8.09;54.01;100132.31;5382074;32;35284;-71
2022/04/21 04:29:06;;;;;;;34.77;19.30;;;;;;;7.88;54.68;100133.03;5379645;32;34125;-70
2022/04/21 04:32:08;;;;;;;32.43;19.20;;;;;;;7.77;54.56;100135.97;5352375;32;34559;-74
2022/04/21 04:35:10;;;;;;;29.87;18.10;;;;;;;7.42;55.75;100134.47;5365163;32;36314;-74
2022/04/21 04:38:14;;;;;;;29.67;18.70;;;;;;;7.90;54.85;100140.81;5345604;32;35382;-71
2022/04/21 04:44:37;;;;;;;30.47;18.03;;;;;;;7.73;54.43;100139.63;5344431;32;35631;-73
2022/04/21 04:47:39;;;;;;;34.03;18.93;;;;;;;7.98;54.74;100134.44;5362427;32;34594;-75
2022/04/21 04:50:42;;;;;;;33.15;18.87;;;;;;;8.83;52.47;100135.09;5354628;32;34828;-76
2022/04/21 04:53:44;;;;;;;32.63;19.27;;;;;;;9.09;51.39;100131.53;5354899;32;34830;-75
2022/04/21 04:56:47;;;;;;;29.90;18.73;;;;;;;8.28;53.59;100140.44;5336984;32;34517;-74
2022/04/21 04:59:49;;;;;;;29.27;18.15;;;;;;;8.58;53.03;100140.34;5348112;32;35173;-70
2022/04/21 05:02:51;;;;;;;32.83;20.80;;;;;;;8.37;53.21;100144.53;5371636;32;44824;-74
2022/04/21 05:05:53;;;;;;;39.07;22.57;;;;;;;9.10;50.16;100138.47;5360914;32;34204;-71
2022/04/21 05:08:57;;;;;;;35.23;21.90;;;;;;;10.12;47.84;100136.25;5366642;32;35007;-75
2022/04/21 05:11:59;;;;;;;40.07;23.50;;;;;;;11.05;45.45;100145.37;5365981;32;33502;-70
2022/04/21 05:15:01;;;;;;;37.37;23.60;;;;;;;9.61;48.46;100145.28;5350365;32;34483;-70
2022/04/21 05:18:04;;;;;;;42.13;25.67;;;;;;;9.31;50.23;100142.06;5360259;32;34925;-71
2022/04/21 05:21:06;;;;;;;50.77;27.00;;;;;;;9.62;49.84;100134.72;5349459;32;35610;-72
2022/04/21 05:24:12;;;;;;;34.40;22.37;;;;;;;9.78;49.34;100132.31;5365131;32;34706;-69
2022/04/21 05:27:15;;;;;;;35.83;24.10;;;;;;;10.73;46.95;100134.50;5339529;32;35377;-72
2022/04/21 05:33:39;;;;;;;34.47;22.37;;;;;;;11.34;45.21;100133.53;5368812;32;34527;-65
2022/04/21 05:36:44;;;;;;;31.97;22.07;;;;;;;12.94;41.62;100132.63;5353593;32;34011;-73
2022/04/21 05:39:46;;;;;;;31.63;20.10;;;;;;;11.86;43.62;100137.22;5372539;32;35244;-70
2022/04/21 05:42:49;;;;;;;35.83;20.40;;;;;;;13.64;39.50;100133.28;5359915;32;35374;-77
2022/04/21 05:45:53;;;;;;;;;;;;;;;12.44;42.05;100138.78;5375743;32;44548;-80
2022/04/21 05:48:55;;;;;;;37.78;21.08;;;;;;;11.61;43.75;100141.94;5376523;32;34304;-74
2022/04/21 05:51:59;;;;;;;31.73;19.50;;;;;;;12.58;42.05;100128.37;5364485;32;34573;-76
2022/04/21 05:55:01;;;;;;;36.37;20.93;;;;;;;12.33;42.13;100133.19;5384684;32;34919;-72
2022/04/21 05:58:09;;;;;;;31.63;21.03;;;;;;;13.39;39.32;100123.22;5345741;32;34169;-71
2022/04/21 06:01:12;;;;;;;29.90;20.20;;;;;;;13.59;39.01;100124.75;5651123;27;35248;-93
2022/04/21 06:04:14;;;;;;;30.02;19.70;;;;;;;13.72;38.69;100128.44;5375337;32;34327;-93
2022/04/21 06:07:16;;;;;;;34.15;22.67;;;;;;;15.93;33.95;100117.63;5352571;32;35659;-91
2022/04/21 06:10:19;;;;;;;40.60;22.70;;;;;;;13.76;38.81;100120.25;5355603;32;35098;-91
2022/04/21 06:13:22;;;;;;;36.83;22.37;;;;;;;13.99;38.47;100124.22;5361632;32;34807;-92
2022/04/21 06:16:24;;;;;;;35.90;23.17;;;;;;;14.10;38.02;100126.22;5365396;32;32036;-92
2022/04/21 06:19:27;;;;;;;30.55;21.42;;;;;;;14.66;36.90;100121.22;5367864;32;34146;-95
2022/04/21 06:22:29;;;;;;;28.65;21.33;;;;;;;15.10;35.58;100118.53;5381194;32;35704;-93
2022/04/21 06:25:32;;;;;;;30.65;21.33;;;;;;;14.51;36.30;100117.72;5369662;32;35431;-94
2022/04/21 06:28:35;;;;;;;32.17;22.70;;;;;;;15.97;33.33;100116.50;5390190;32;35669;-93
2022/04/21 06:31:45;;;;;;;28.55;20.95;;;;;;;15.96;33.06;100111.25;5382009;32;44048;-96
2022/04/21 06:34:51;;;;;;;31.80;20.80;;;;;;;15.60;33.23;100099.44;5397553;32;34700;-93
2022/04/21 06:37:57;;;;;;;28.58;21.42;;;;;;;16.53;31.64;100092.41;5423000;32;36224;-94
2022/04/21 06:41:01;;;;;;;29.90;22.02;;;;;;;17.03;30.83;100107.50;5428158;32;33211;-96
2022/04/21 06:50:49;;;;;;;29.52;22.50;;;;;;;16.16;32.22;100109.94;5406224;32;35004;-89
2022/04/21 06:53:53;;;;;;;29.48;20.80;;;;;;;16.57;32.05;100101.87;5407731;32;35640;-95
2022/04/21 06:56:55;;;;;;;31.30;21.62;;;;;;;17.84;29.03;100101.72;5394262;32;33452;-93
2022/04/21 06:59:58;;;;;;;26.40;21.05;;;;;;;17.65;30.17;100101.34;5381676;32;35526;-93
2022/04/21 07:03:00;;;;;;;28.98;22.37;;;;;;;17.50;30.12;100103.28;5375680;32;34075;-92
2022/04/21 07:06:06;;;;;;;;;;;;;;;16.96;31.07;100103.59;5379915;32;35397;-95
2022/04/21 07:09:08;;;;;;;27.10;20.15;;;;;;;18.48;29.43;100098.66;5387068;32;44079;-92
2022/04/21 07:12:11;;;;;;;28.58;21.55;;;;;;;18.70;28.32;100084.59;5392095;32;34028;-92
2022/04/21 07:15:13;;;;;;;;;;;;;;;18.14;29.32;100095.06;5373029;32;37246;-90
2022/04/21 07:18:16;;;;;;;28.42;20.83;;;;;;;17.90;29.62;100094.22;5379224;32;37411;-91
2022/04/21 07:21:19;;;;;;;24.50;17.75;;;;;;;18.35;29.26;100096.12;5364074;32;34067;-90
2022/04/21 07:24:21;;;;;;;24.25;18.00;;;;;;;18.72;28.20;100098.63;5369819;32;34884;-90
2022/04/21 07:27:24;;;;;;;21.35;16.65;;;;;;;18.19;29.01;100090.25;5374996;32;37184;-89
2022/04/21 07:30:27;;;;;;;23.08;15.75;;;;;;;18.94;27.60;100096.00;5369852;32;35586;-92
2022/04/21 07:33:30;;;;;;;19.90;14.93;;;;;;;19.50;26.08;100087.09;5394884;32;34244;-91
2022/04/21 07:36:34;;;;;;;17.87;13.57;;;;;;;19.21;26.76;100087.63;5382716;32;35526;-88
2022/04/21 07:39:43;;;;;;;28.42;12.73;;;;;;;19.77;25.78;100078.69;5388539;32;42443;-90
2022/04/21 07:42:47;;;;;;;15.60;10.02;;;;;;;19.32;25.86;100080.59;5371841;32;35938;-90
2022/04/21 07:45:50;;;;;;;20.58;12.45;;;;;;;19.11;25.33;100080.50;5374289;32;35298;-87
2022/04/21 07:55:48;;;;;;;12.48;6.57;;;;;;;23.58;19.83;100063.91;5383164;32;46146;-89
2022/04/21 07:58:51;;;;;;;13.52;7.37;;;;;;;20.83;22.07;100067.97;5353597;32;32815;-93
2022/04/21 08:01:53;;;;;;;10.65;6.82;;;;;;;22.29;20.42;100074.53;5365086;32;35102;-93
2022/04/21 08:04:55;;;;;;;;;;;;;;;20.82;22.69;100072.47;5400313;32;34975;-91
2022/04/21 08:08:00;;;;;;;12.35;7.78;;;;;;;22.62;20.77;100055.28;5371526;32;34363;-92
2022/04/21 08:11:04;;;;;;;12.15;7.22;;;;;;;20.88;22.48;100060.41;5363694;32;34823;-91
2022/04/21 08:14:07;;;;;;;12.57;8.15;;;;;;;24.41;18.73;100045.75;5393775;32;44019;-93
2022/04/21 08:17:10;;;;;;;15.75;9.48;;;;;;;22.32;20.36;100056.31;5400923;32;36002;-89
2022/04/21 08:20:12;;;;;;;;;;;;;;;24.58;18.53;100044.00;5383031;32;34269;-89
2022/04/21 08:23:15;;;;;;;13.00;8.93;;;;;;;23.34;19.32;100060.94;5388914;32;36695;-92
2022/04/21 08:33:21;;;;;;;23.08;9.13;;;;;;;24.60;18.58;100047.37;5383815;32;34501;-93
2022/04/21 08:36:26;;;;;;;11.98;8.32;;;;;;;22.24;21.92;100061.56;5389930;32;34631;-96
2022/04/21 08:39:29;;;;;;;11.15;7.43;;;;;;;24.03;19.23;100054.97;5390501;32;33229;-95
2022/04/21 08:42:39;;;;;;;11.57;7.87;;;;;;;24.27;18.37;100051.63;5407351;32;35403;-91
2022/04/21 08:45:45;;;;;;;11.57;6.68;;;;;;;22.24;20.55;100052.69;5377050;32;44035;-90
2022/04/21 08:48:51;;;;;;;8.77;5.53;;;;;;;23.80;18.61;100046.53;5359752;32;34264;-96
2022/04/21 08:51:56;;;;;;;10.02;5.75;;;;;;;23.41;18.72;100051.31;5381145;32;33922;-96
2022/04/21 08:54:59;;;;;;;8.45;5.10;;;;;;;24.05;17.93;100045.75;5374287;32;34677;-94
2022/04/21 08:58:05;;;;;;;9.65;5.55;;;;;;;24.31;17.91;100048.50;5399427;32;42248;-95
2022/04/21 09:01:11;;;;;;;11.77;5.45;;;;;;;21.85;20.42;100058.88;5388536;32;44584;-96
2022/04/21 09:04:24;;;;;;;12.27;4.65;;;;;;;21.97;20.18;100064.94;5400810;32;33718;-93
2022/04/21 09:07:31;;;;;;;9.15;5.25;;;;;;;21.89;19.67;100054.06;5410211;32;35527;-96
2022/04/21 09:10:33;;;;;;;;;;;;;;;23.59;18.37;100060.22;5388385;32;35157;-91
2022/04/21 09:13:49;;;;;;;9.43;4.95;;;;;;;20.64;21.48;100062.53;5388124;32;44431;-94
2022/04/21 09:17:05;;;;;;;9.27;4.68;;;;;;;22.66;19.50;100055.81;5396445;32;33951;-93
2022/04/21 09:20:11;;;;;;;8.65;5.12;;;;;;;24.13;17.75;100062.94;5423586;32;44523;-94
2022/04/21 09:23:19;;;;;;;9.48;5.70;;;;;;;24.09;17.87;100056.19;5394558;32;32777;-95
2022/04/21 09:26:26;;;;;;;11.82;5.22;;;;;;;22.29;19.55;100061.97;5395298;32;33839;-96
2022/04/21 09:29:33;;;;;;;10.88;4.93;;;;;;;25.50;16.57;100053.19;5389656;32;35457;-95
2022/04/21 09:32:37;;;;;;;7.18;4.68;;;;;;;25.22;16.58;100042.66;5387760;32;46266;-94
2022/04/21 09:35:40;;;;;;;7.05;4.53;;;;;;;24.13;17.52;100057.56;5406884;32;34150;-96
2022/04/21 09:38:59;;;;;;;7.70;4.68;;;;;;;25.77;16.00;100047.56;5387976;32;34036;-91
2022/04/21 09:42:05;;;;;;;7.72;4.35;;;;;;;24.79;16.62;100046.31;5388792;32;34234;-93
2022/04/21 09:48:31;;;;;;;7.28;4.80;;;;;;;23.71;17.77;100064.41;5377289;32;35206;-94
2022/04/21 09:51:34;;;;;;;7.45;5.10;;;;;;;23.49;18.12;100054.91;5414377;32;34220;-96
2022/04/21 09:54:39;;;;;;;8.82;4.95;;;;;;;24.16;17.02;100046.53;5410142;32;44702;-96
2022/04/21 09:57:43;;;;;;;11.75;5.53;;;;;;;26.06;15.42;100048.94;5404154;32;34090;-96
2022/04/21 10:00:45;;;;;;;10.30;5.65;;;;;;;24.36;17.02;100045.38;5398211;32;35406;-92
2022/04/21 10:03:48;;;;;;;8.48;5.20;;;;;;;23.85;17.57;100046.94;5387099;32;35177;-94
2022/04/21 10:06:52;;;;;;;9.70;6.05;;;;;;;25.81;16.37;100032.75;5414694;32;33600;-93
2022/04/21 10:09:54;;;;;;;;;;;;;;;24.27;17.50;100047.09;5391858;32;34290;-96
2022/04/21 10:12:59;;;;;;;9.55;4.87;;;;;;;24.23;17.93;100037.69;5431053;32;33994;-92
2022/04/21 10:16:02;;;;;;;7.75;4.35;;;;;;;23.30;18.67;100038.09;5401211;32;35715;-93
2022/04/21 10:19:21;;;;;;;7.85;4.78;;;;;;;25.85;15.03;100019.81;5415205;32;34459;-92
2022/04/21 10:22:32;;;;;;;9.27;5.22;;;;;;;26.30;15.00;100024.69;5346967;32;33943;-95
2022/04/21 10:25:39;;;;;;;9.77;5.20;;;;;;;24.68;16.74;100028.62;5391420;27;37909;-71
2022/04/21 10:28:42;;;;;;;8.52;4.78;;;;;;;23.65;17.87;100024.78;5361129;32;34294;-69
2022/04/21 10:31:56;;;;;;;12.20;5.28;;;;;;;26.16;15.66;100023.53;5361919;32;35017;-67
2022/04/21 10:34:59;;;;;;;9.00;4.57;;;;;;;25.96;15.65;100024.03;5381980;32;34088;-73
2022/04/21 10:38:13;;;;;;;7.32;4.30;;;;;;;24.30;17.27;100025.31;5382357;32;35201;-70
2022/04/21 10:41:34;;;;;;;7.53;3.90;;;;;;;26.75;14.66;100025.12;5375798;32;33959;-73
2022/04/21 10:44:49;;;;;;;7.65;4.43;;;;;;;26.84;14.11;100007.91;5389381;32;45140;-80
2022/04/21 10:48:12;;;;;;;7.82;4.22;;;;;;;24.90;16.12;100004.88;5382013;32;33935;-70
2022/04/21 10:57:12;;;;;;;6.55;4.40;;;;;;;27.29;13.83;100012.63;5412962;32;44456;-67
2022/04/21 10:58:34;;;;;;;8.40;4.62;;;;;;;28.19;13.10;99993.09;5413243;32;34396;-67
2022/04/21 11:01:37;;;;;;;8.63;4.55;;;;;;;28.29;13.17;99983.69;5423829;32;44275;-70
2022/04/21 11:04:40;;;;;;;6.82;4.28;;;;;;;24.57;16.05;99996.66;5428231;32;35855;-71
2022/04/21 11:07:51;;;;;;;;;;;;;;;24.89;15.43;100000.50;5414377;32;33925;-72
2022/04/21 11:10:54;;;;;;;7.62;4.57;;;;;;;25.52;15.22;99992.00;5430032;32;34447;-75
2022/04/21 11:14:06;;;;;;;8.48;4.62;;;;;;;23.29;17.72;99989.00;5414319;32;35158;-71
2022/04/21 11:17:09;;;;;;;7.87;4.60;;;;;;;24.63;16.53;99971.84;5425527;32;45857;-72
2022/04/21 11:20:27;;;;;;;9.50;5.40;;;;;;;25.02;16.06;99976.69;5402599;32;33944;-72
2022/04/21 11:23:29;;;;;;;8.57;5.15;;;;;;;25.98;14.74;99973.53;5414395;32;35639;-71
2022/04/21 11:26:31;;;;;;;6.70;4.25;;;;;;;27.39;14.55;99969.22;5428901;32;34249;-70
2022/04/21 11:29:35;;;;;;;9.38;4.82;;;;;;;28.35;13.59;99965.94;5417938;32;33824;-70
2022/04/21 11:32:38;;;;;;;7.15;4.40;;;;;;;28.00;13.43;99968.25;5415049;32;44831;-69
2022/04/21 11:35:42;;;;;;;7.45;4.68;;;;;;;28.91;12.48;99952.75;5403387;32;34202;-72
2022/04/21 11:38:45;;;;;;;9.27;4.57;;;;;;;24.45;15.53;99976.44;5424144;32;38139;-74
2022/04/21 11:41:52;;;;;;;6.93;4.75;;;;;;;24.54;16.31;99973.66;5411120;32;34228;-73
2022/04/21 11:44:54;;;;;;;7.95;4.62;;;;;;;26.70;14.56;99953.69;5420407;32;32942;-71
2022/04/21 11:47:57;;;;;;;8.30;5.15;;;;;;;24.42;16.58;99963.34;5411026;32;34318;-69
2022/04/21 11:51:00;;;;;;;10.52;5.80;;;;;;;26.95;14.56;99965.22;5417597;32;36694;-69
2022/04/21 11:54:04;;;;;;;10.65;5.32;;;;;;;23.52;18.24;99971.47;5436518;32;35586;-70
2022/04/21 11:57:07;;;;;;;15.68;7.37;;;;;;;25.99;15.58;99967.97;5415642;32;45046;-68
2022/04/21 12:00:10;;;;;;;7.50;4.95;;;;;;;23.74;18.40;99964.81;5424634;32;34038;-90
2022/04/21 12:06:38;;;;;;;11.90;5.50;;;;;;;27.87;13.85;99951.84;5423043;32;34076;-74
2022/04/21 12:09:41;;;;;;;9.43;4.82;;;;;;;27.85;13.95;99947.66;5428006;32;44047;-74
2022/04/21 12:12:44;;;;;;;9.52;5.65;;;;;;;28.24;13.56;99940.19;5416738;32;33845;-72
2022/04/21 12:15:52;;;;;;;13.82;5.90;;;;;;;26.94;14.85;99949.22;5417144;32;34103;-74
2022/04/21 12:18:55;;;;;;;11.88;5.72;;;;;;;25.65;16.00;99941.22;5423858;32;34277;-71
2022/04/21 12:22:08;;;;;;;10.68;5.93;;;;;;;28.47;13.87;99932.03;5405530;32;35698;-71
2022/04/21 12:25:12;;;;;;;8.55;5.22;;;;;;;27.34;14.42;99940.09;5416719;32;44168;-68
2022/04/21 12:28:14;;;;;;;8.73;5.78;;;;;;;26.84;14.65;99932.41;5416570;32;34003;-73
2022/04/21 12:31:19;;;;;;;;;;;;;;;26.60;15.32;99931.53;5424219;32;34343;-73
2022/04/21 12:34:22;;;;;;;9.85;7.03;;;;;;;27.49;14.51;99930.19;5413424;32;34165;-74
2022/04/21 12:37:28;;;;;;;10.25;6.18;;;;;;;29.95;12.95;99915.34;5415658;32;34429;-74
2022/04/21 12:40:31;;;;;;;12.30;6.97;;;;;;;29.34;13.30;99928.50;5426079;32;35066;-80
2022/04/21 12:43:34;;;;;;;12.48;6.93;;;;;;;30.15;12.73;99912.81;5416530;32;35938;-68
2022/04/21 12:46:36;;;;;;;10.77;6.80;;;;;;;26.56;15.21;99923.94;5419565;32;45021;-78
2022/04/21 12:49:58;;;;;;;9.63;6.10;;;;;;;25.40;16.69;99934.97;5400962;32;34101;-70
2022/04/21 12:53:00;;;;;;;12.32;6.62;;;;;;;22.08;19.39;99944.34;5417887;32;34447;-68
2022/04/21 12:56:12;;;;;;;13.18;6.45;;;;;;;22.13;20.02;99934.09;5416999;32;35862;-72
2022/04/21 12:59:14;;;;;;;10.50;6.25;;;;;;;22.17;19.58;99942.69;5415164;32;44567;-74
2022/04/21 13:02:18;;;;;;;12.00;6.57;;;;;;;20.73;21.03;99933.56;5425367;32;35582;-78
2022/04/21 13:05:21;;;;;;;10.93;6.37;;;;;;;22.14;19.64;99910.84;5422388;32;33927;-79
2022/04/21 13:08:25;;;;;;;9.88;6.07;;;;;;;19.64;22.35;99939.37;5425948;32;35281;-76
2022/04/21 13:11:27;;;;;;;9.93;5.85;;;;;;;20.36;22.04;99928.75;5415464;32;35163;-75
2022/04/21 13:14:30;;;;;;;8.45;5.45;;;;;;;20.81;21.00;99928.41;5416393;32;33910;-78
2022/04/21 13:17:32;;;;;;;10.20;5.75;;;;;;;21.18;20.91;99927.75;5424856;32;35477;-70
2022/04/21 13:23:56;;;;;;;8.32;5.53;;;;;;;19.98;22.63;99935.56;5426579;32;34019;-67
2022/04/21 13:26:59;;;;;;;10.80;5.97;;;;;;;19.29;22.88;99943.13;5403739;32;109250;-66
2022/04/21 13:30:01;;;;;;;9.13;5.57;;;;;;;19.32;22.77;99936.69;5419633;32;35498;-74
2022/04/21 13:33:22;;;;;;;10.60;5.50;;;;;;;18.74;23.86;99934.31;5420465;32;34499;-71
2022/04/21 13:36:24;;;;;;;11.37;5.77;;;;;;;19.96;22.52;99932.19;5415268;32;34157;-72
2022/04/21 13:39:27;;;;;;;8.35;5.18;;;;;;;19.89;22.48;99927.50;5414399;32;34304;-73
2022/04/21 13:42:34;;;;;;;10.13;5.63;;;;;;;18.79;23.82;99931.28;5411881;32;34126;-67
2022/04/21 13:45:38;;;;;;;10.10;5.47;;;;;;;18.45;24.49;99941.06;5425560;32;44477;-64
2022/04/21 13:48:40;;;;;;;15.27;5.03;;;;;;;18.35;24.32;99936.50;5397805;32;35381;-74
2022/04/21 13:51:44;;;;;;;11.10;5.60;;;;;;;19.27;23.38;99934.44;5422627;32;33215;-78
2022/04/21 13:54:54;;;;;;;10.17;5.30;;;;;;;20.12;21.92;99926.38;5429721;32;34127;-69
2022/04/21 13:57:57;;;;;;;12.00;5.47;;;;;;;20.21;21.88;99912.25;5402537;32;34903;-70
2022/04/21 14:01:00;;;;;;;7.77;4.80;;;;;;;19.67;22.64;99920.47;5396318;32;33999;-87
2022/04/21 14:04:02;;;;;;;;;;;;;;;19.09;23.10;99922.63;5416805;32;35445;-78
2022/04/21 14:07:04;;;;;;;10.77;4.62;;;;;;;19.73;22.23;99919.97;5415422;32;35884;-69
2022/04/21 14:10:07;;;;;;;10.60;4.97;;;;;;;19.06;23.13;99918.38;5420173;32;44542;-70
2022/04/21 14:13:09;;;;;;;11.02;5.20;;;;;;;19.72;22.68;99913.78;5410692;32;35513;-65
2022/04/21 14:16:15;;;;;;;7.60;4.37;;;;;;;17.99;24.52;99929.53;5425747;32;35594;-65
2022/04/21 14:19:33;;;;;;;11.12;5.07;;;;;;;18.23;24.22;99921.47;5409793;32;35226;-65
2022/04/21 14:22:35;;;;;;;7.95;4.53;;;;;;;19.06;23.50;99915.72;5427328;32;36447;-65
2022/04/21 14:25:37;;;;;;;9.73;5.47;;;;;;;18.89;23.65;99916.25;5415329;32;35069;-66
2022/04/21 14:28:40;;;;;;;8.73;5.35;;;;;;;19.70;22.83;99909.53;5407878;32;36270;-68
2022/04/21 14:31:42;;;;;;;14.05;5.20;;;;;;;18.38;24.64;99922.09;5430409;32;34550;-67
2022/04/21 14:34:44;;;;;;;11.20;5.30;;;;;;;19.28;23.63;99924.63;5417674;32;34674;-67
2022/04/21 14:44:28;;;;;;;10.30;5.47;;;;;;;18.11;24.87;99923.28;5419239;32;34366;-68
2022/04/21 14:47:31;;;;;;;10.88;4.93;;;;;;;19.14;23.59;99923.94;5417973;32;34655;-66
2022/04/21 14:50:33;;;;;;;9.93;5.47;;;;;;;18.44;24.53;99918.94;5410271;32;34153;-66
2022/04/21 14:53:36;;;;;;;10.25;6.30;;;;;;;18.17;25.08;99929.09;5433948;32;44592;-67
2022/04/21 14:56:40;;;;;;;10.97;4.93;;;;;;;17.90;25.32;99926.72;5418815;32;34025;-67
2022/04/21 14:59:42;;;;;;;9.17;5.60;;;;;;;18.32;24.88;99920.75;5431630;32;35382;-65
2022/04/21 15:02:45;;;;;;;8.77;5.00;;;;;;;18.04;25.19;99922.06;5419517;32;34496;-66
2022/04/21 15:05:47;;;;;;;8.95;5.55;;;;;;;18.26;24.73;99915.06;5414563;32;35287;-66
2022/04/21 15:08:49;;;;;;;9.10;4.70;;;;;;;18.36;24.63;99911.56;5433114;32;35208;-66
2022/04/21 15:11:52;;;;;;;12.32;5.40;;;;;;;18.20;24.79;99910.22;5416942;32;35140;-66
2022/04/21 15:14:56;;;;;;;8.50;4.53;;;;;;;17.93;25.76;99913.22;5434957;32;35166;-65
2022/04/21 15:17:58;;;;;;;17.07;5.93;;;;;;;19.23;23.38;99910.84;5416164;32;37064;-66
2022/04/21 15:21:02;;;;;;;9.07;5.32;;;;;;;18.30;24.69;99906.72;5426315;32;34632;-63